createdAt,value
2023-02-22T00:00:04.614Z,971.00
2023-02-22T00:01:04.593Z,974.00
2023-02-22T00:02:04.593Z,985.00
2023-02-22T00:03:04.593Z,969.00
2023-02-22T00:04:04.724Z,970.00
2023-02-22T00:05:04.458Z,980.00
2023-02-22T00:06:04.412Z,954.00
2023-02-22T00:07:04.378Z,961.00
2023-02-22T00:08:04.349Z,952.00
2023-02-22T00:09:04.723Z,986.00
2023-02-22T00:10:04.276Z,951.00
2023-02-22T00:11:04.241Z,977.00
2023-02-22T00:12:04.211Z,948.00
2023-02-22T00:13:04.180Z,942.00
2023-02-22T00:14:04.157Z,954.00
2023-02-22T00:15:04.104Z,946.00
2023-02-22T00:16:04.159Z,977.00
2023-02-22T00:17:04.747Z,931.00
2023-02-22T00:18:04.011Z,959.00
2023-02-22T00:19:03.980Z,958.00
2023-02-22T00:20:03.941Z,948.00
2023-02-22T00:21:03.896Z,929.00
2023-02-22T00:22:03.871Z,954.00
2023-02-22T00:23:03.833Z,917.00
2023-02-22T00:24:03.801Z,906.00
2023-02-22T00:25:03.772Z,928.00
2023-02-22T00:26:03.749Z,926.00
2023-02-22T00:27:03.698Z,934.00
2023-02-22T00:28:03.667Z,933.00
2023-02-22T00:29:03.634Z,898.00
2023-02-22T00:30:03.605Z,935.00
2023-02-22T00:31:03.673Z,920.00
2023-02-22T00:32:03.631Z,944.00
2023-02-22T00:33:03.504Z,921.00
2023-02-22T00:34:03.473Z,928.00
2023-02-22T00:35:03.440Z,931.00
2023-02-22T00:36:03.408Z,928.00
2023-02-22T00:37:03.378Z,888.00
2023-02-22T00:38:03.354Z,915.00
2023-02-22T00:39:03.322Z,902.00
2023-02-22T00:40:03.295Z,885.00
2023-02-22T00:41:03.268Z,900.00
2023-02-22T00:42:03.329Z,913.00
2023-02-22T00:43:03.215Z,904.00
2023-02-22T00:44:03.313Z,895.00
2023-02-22T00:45:03.165Z,901.00
2023-02-22T00:46:03.224Z,871.00
2023-02-22T00:47:03.120Z,876.00
2023-02-22T00:48:03.076Z,897.00
2023-02-22T00:49:03.049Z,886.00
2023-02-22T00:50:03.042Z,868.00
2023-02-22T00:51:03.001Z,871.00
2023-02-22T00:52:02.981Z,888.00
2023-02-22T00:53:02.943Z,867.00
2023-02-22T00:54:02.924Z,868.00
2023-02-22T00:55:02.898Z,875.00
2023-02-22T00:56:02.877Z,849.00
2023-02-22T00:57:02.849Z,867.00
2023-02-22T00:58:02.814Z,876.00
2023-02-22T00:59:02.783Z,895.00
2023-02-22T01:00:02.762Z,853.00
2023-02-22T01:01:02.782Z,862.00
2023-02-22T01:02:02.727Z,873.00
2023-02-22T01:03:02.688Z,857.00
2023-02-22T01:04:02.659Z,842.00
2023-02-22T01:05:02.651Z,873.00
2023-02-22T01:06:02.614Z,858.00
2023-02-22T01:07:02.602Z,863.00
2023-02-22T01:08:02.574Z,823.00
2023-02-22T01:09:02.581Z,846.00
2023-02-22T01:10:02.524Z,842.00
2023-02-22T01:11:02.498Z,839.00
2023-02-22T01:12:02.480Z,842.00
2023-02-22T01:13:02.457Z,841.00
2023-02-22T01:14:02.434Z,838.00
2023-02-22T01:15:02.415Z,844.00
2023-02-22T01:16:02.462Z,853.00
2023-02-22T01:17:02.378Z,848.00
2023-02-22T01:18:02.347Z,846.00
2023-02-22T01:19:02.330Z,827.00
2023-02-22T01:20:02.313Z,854.00
2023-02-22T01:21:02.301Z,836.00
2023-02-22T01:22:02.283Z,847.00
2023-02-22T01:23:02.254Z,831.00
2023-02-22T01:24:02.236Z,830.00
2023-02-22T01:25:02.214Z,852.00
2023-02-22T01:26:02.196Z,833.00
2023-02-22T01:27:02.187Z,834.00
2023-02-22T01:28:02.173Z,830.00
2023-02-22T01:29:02.134Z,834.00
2023-02-22T01:30:02.103Z,842.00
2023-02-22T01:31:02.124Z,834.00
2023-02-22T01:32:02.062Z,808.00
2023-02-22T01:33:02.044Z,831.00
2023-02-22T01:34:02.033Z,852.00
2023-02-22T01:35:02.841Z,837.00
2023-02-22T01:36:01.980Z,854.00
2023-02-22T01:37:01.962Z,822.00
2023-02-22T01:38:01.935Z,817.00
2023-02-22T01:39:02.758Z,832.00
2023-02-22T01:40:01.890Z,839.00
2023-02-22T01:41:01.902Z,809.00
2023-02-22T01:42:01.839Z,817.00
2023-02-22T01:43:01.807Z,812.00
2023-02-22T01:44:01.778Z,840.00
2023-02-22T01:45:01.754Z,830.00
2023-02-22T01:46:01.795Z,791.00
2023-02-22T01:48:01.756Z,797.00
2023-02-22T01:49:02.249Z,829.00
2023-02-22T02:04:02.328Z,762.00
2023-02-22T02:05:02.297Z,768.00
2023-02-22T03:04:01.780Z,659.00
2023-02-22T03:22:01.758Z,644.00
2023-02-22T03:23:01.774Z,642.00
2023-02-22T03:24:01.792Z,623.00
2023-02-22T03:25:01.802Z,636.00
2023-02-22T03:26:01.834Z,624.00
2023-02-22T03:27:01.901Z,642.00
2023-02-22T03:28:01.846Z,623.00
2023-02-22T03:29:01.860Z,636.00
2023-02-22T03:30:01.899Z,629.00
2023-02-22T03:31:01.929Z,628.00
2023-02-22T03:32:01.967Z,640.00
2023-02-22T03:36:01.897Z,630.00
2023-02-22T03:37:01.909Z,616.00
2023-02-22T03:38:01.933Z,618.00
2023-02-22T03:39:01.940Z,621.00
2023-02-22T03:40:02.027Z,620.00
2023-02-22T03:41:01.966Z,638.00
2023-02-22T03:48:02.022Z,622.00
2023-02-22T03:50:02.092Z,608.00
2023-02-22T03:51:02.086Z,620.00
2023-02-22T03:52:02.108Z,608.00
2023-02-22T03:53:02.138Z,614.00
2023-02-22T03:54:02.224Z,610.00
2023-02-22T03:55:02.204Z,615.00
2023-02-22T03:56:02.271Z,606.00
2023-02-22T03:57:02.262Z,604.00
2023-02-22T03:58:02.290Z,610.00
2023-02-22T03:59:02.315Z,606.00
2023-02-22T04:00:02.348Z,599.00
2023-02-22T04:01:02.433Z,591.00
2023-02-22T04:02:02.388Z,600.00
2023-02-22T04:03:02.463Z,617.00
2023-02-22T04:04:02.442Z,611.00
2023-02-22T04:05:02.468Z,600.00
2023-02-22T04:06:02.485Z,608.00
2023-02-22T04:07:02.486Z,606.00
2023-02-22T04:08:02.490Z,599.00
2023-02-22T04:09:02.526Z,596.00
2023-02-22T04:10:02.565Z,590.00
2023-02-22T04:11:02.571Z,602.00
2023-02-22T04:12:02.595Z,605.00
2023-02-22T04:14:02.655Z,609.00
2023-02-22T04:15:02.687Z,603.00
2023-02-22T04:16:02.725Z,596.00
2023-02-22T04:17:02.742Z,604.00
2023-02-22T04:18:02.756Z,590.00
2023-02-22T04:19:02.804Z,601.00
2023-02-22T04:20:02.842Z,595.00
2023-02-22T04:21:02.866Z,590.00
2023-02-22T04:22:02.898Z,587.00
2023-02-22T04:23:02.912Z,598.00
2023-02-22T04:24:02.950Z,608.00
2023-02-22T04:25:02.966Z,603.00
2023-02-22T04:26:03.001Z,594.00
2023-02-22T04:27:03.812Z,593.00
2023-02-22T04:28:03.068Z,593.00
2023-02-22T04:29:03.131Z,587.00
2023-02-22T04:30:03.080Z,605.00
2023-02-22T04:31:03.124Z,602.00
2023-02-22T04:32:03.178Z,595.00
2023-02-22T04:33:03.110Z,580.00
2023-02-22T04:34:03.117Z,594.00
2023-02-22T04:35:03.114Z,585.00
2023-02-22T04:36:03.122Z,588.00
2023-02-22T04:37:03.102Z,598.00
2023-02-22T04:38:03.135Z,589.00
2023-02-22T04:39:03.133Z,593.00
2023-02-22T04:40:03.155Z,594.00
2023-02-22T04:41:03.172Z,600.00
2023-02-22T04:42:03.195Z,599.00
2023-02-22T04:43:03.218Z,600.00
2023-02-22T04:44:03.257Z,590.00
2023-02-22T04:45:03.273Z,596.00
2023-02-22T04:46:03.300Z,579.00
2023-02-22T04:47:03.335Z,596.00
2023-02-22T04:48:03.338Z,583.00
2023-02-22T04:49:03.367Z,580.00
2023-02-22T04:50:03.392Z,583.00
2023-02-22T04:51:03.430Z,591.00
2023-02-22T04:52:03.440Z,575.00
2023-02-22T04:53:03.459Z,591.00
2023-02-22T04:54:03.502Z,590.00
2023-02-22T04:55:03.507Z,583.00
2023-02-22T04:56:03.532Z,588.00
2023-02-22T04:57:03.555Z,587.00
2023-02-22T04:58:03.582Z,585.00
2023-02-22T04:59:03.597Z,581.00
2023-02-22T05:00:03.644Z,578.00
2023-02-22T05:01:03.656Z,577.00
2023-02-22T05:02:03.663Z,573.00
2023-02-22T05:03:03.678Z,562.00
2023-02-22T05:04:03.772Z,588.00
2023-02-22T05:05:03.786Z,568.00
2023-02-22T05:06:03.758Z,566.00
2023-02-22T05:07:03.788Z,569.00
2023-02-22T05:08:03.817Z,569.00
2023-02-22T05:09:03.837Z,565.00
2023-02-22T05:10:03.870Z,577.00
2023-02-22T05:11:03.892Z,558.00
2023-02-22T05:12:03.968Z,565.00
2023-02-22T05:13:04.328Z,571.00
2023-02-22T05:14:03.951Z,579.00
2023-02-22T05:15:03.938Z,570.00
2023-02-22T05:16:03.959Z,560.00
2023-02-22T05:17:03.946Z,577.00
2023-02-22T05:19:03.957Z,573.00
2023-02-22T05:20:03.975Z,563.00
2023-02-22T05:21:03.984Z,557.00
2023-02-22T05:22:03.984Z,555.00
2023-02-22T05:23:04.823Z,559.00
2023-02-22T05:24:04.043Z,565.00
2023-02-22T05:25:04.072Z,555.00
2023-02-22T06:31:04.314Z,642.00
2023-02-22T06:40:05.777Z,836.00
2023-02-22T06:41:03.998Z,876.00
2023-02-22T06:42:03.965Z,968.00
2023-02-22T06:43:03.904Z,967.00
2023-02-22T06:44:03.858Z,959.00
2023-02-22T06:45:03.805Z,962.00
2023-02-22T06:46:03.813Z,995.00
2023-02-22T06:47:03.700Z,991.00
2023-02-22T06:48:03.652Z,1025.00
2023-02-22T06:49:03.602Z,1027.00
2023-02-22T06:50:03.541Z,1052.00
2023-02-22T06:51:03.496Z,1086.00
2023-02-22T06:52:03.442Z,1110.00
2023-02-22T06:53:03.389Z,1130.00
2023-02-22T06:54:03.348Z,1147.00
2023-02-22T06:55:03.290Z,1166.00
2023-02-22T06:56:03.231Z,1562.00
2023-02-22T06:57:03.184Z,1642.00
2023-02-22T06:58:03.200Z,1506.00
2023-02-22T06:59:03.085Z,1410.00
2023-02-22T07:00:03.026Z,1397.00
2023-02-22T07:01:03.020Z,1396.00
2023-02-22T07:02:02.914Z,1400.00
2023-02-22T07:03:02.937Z,1398.00
2023-02-22T07:04:02.836Z,1409.00
2023-02-22T07:05:02.761Z,1403.00
2023-02-22T07:06:02.703Z,1441.00
2023-02-22T07:07:03.366Z,1473.00
2023-02-22T07:08:02.601Z,1484.00
2023-02-22T07:09:02.546Z,1500.00
2023-02-22T07:10:02.505Z,1511.00
2023-02-22T07:11:02.456Z,1521.00
2023-02-22T07:12:02.407Z,1548.00
2023-02-22T07:13:02.397Z,1553.00
2023-02-22T07:14:02.863Z,1574.00
2023-02-22T07:15:02.305Z,1589.00
2023-02-22T07:16:02.345Z,1609.00
2023-02-22T07:17:02.244Z,1621.00
2023-02-22T07:18:02.871Z,1646.00
2023-02-22T07:19:02.204Z,1656.00
2023-02-22T07:20:02.191Z,1670.00
2023-02-22T07:21:02.141Z,1682.00
2023-02-22T07:22:02.113Z,1694.00
2023-02-22T07:23:02.069Z,1613.00
2023-02-22T07:24:03.988Z,1434.00
2023-02-22T07:25:01.986Z,1254.00
2023-02-22T07:26:01.962Z,1135.00
2023-02-22T07:27:01.894Z,1138.00
2023-02-22T07:28:01.846Z,1202.00
2023-02-22T07:29:01.884Z,1223.00
2023-02-22T07:30:01.768Z,1231.00
2023-02-22T08:49:57.098Z,1658.00
2023-02-22T08:50:57.041Z,1641.00
2023-02-22T08:51:56.991Z,1634.00
2023-02-22T08:52:56.931Z,1610.00
2023-02-22T08:53:56.860Z,1604.00
2023-02-22T08:54:56.808Z,1589.00
2023-02-22T08:55:56.906Z,1588.00
2023-02-22T08:56:56.694Z,1588.00
2023-02-22T08:57:56.653Z,1566.00
2023-02-22T08:58:56.584Z,1582.00
2023-02-22T08:59:56.527Z,1581.00
2023-02-22T09:00:56.901Z,1574.00
2023-02-22T09:01:56.480Z,1580.00
2023-02-22T09:02:56.374Z,1576.00
2023-02-22T09:03:56.386Z,1570.00
2023-02-22T09:04:56.277Z,1573.00
2023-02-22T09:05:57.507Z,1569.00
2023-02-22T09:06:56.882Z,1565.00
2023-02-22T09:07:56.182Z,1566.00
2023-02-22T09:08:56.153Z,1557.00
2023-02-22T09:09:56.160Z,1563.00
2023-02-22T09:10:56.158Z,1539.00
2023-02-22T09:11:56.078Z,1544.00
2023-02-22T09:12:56.066Z,1547.00
2023-02-22T09:13:56.040Z,1526.00
2023-02-22T09:14:56.023Z,1529.00
2023-02-22T09:15:56.003Z,1522.00
2023-02-22T09:16:55.992Z,1511.00
2023-02-22T09:17:55.963Z,1493.00
2023-02-22T09:18:55.942Z,1491.00
2023-02-22T09:19:55.908Z,1491.00
2023-02-22T09:20:55.889Z,1494.00
2023-02-22T09:21:55.859Z,1482.00
2023-02-22T09:22:55.838Z,1475.00
2023-02-22T09:24:58.482Z,1465.00
2023-02-22T09:25:55.804Z,1446.00
2023-02-22T09:26:55.729Z,1451.00
2023-02-22T09:27:55.678Z,1461.00
2023-02-22T09:28:55.622Z,1445.00
2023-02-22T09:29:55.608Z,1441.00
2023-02-22T09:30:55.503Z,1444.00
2023-02-22T09:31:55.650Z,1434.00
2023-02-22T09:32:55.533Z,1420.00
2023-02-22T09:33:55.401Z,1410.00
2023-02-22T09:34:55.280Z,1423.00
2023-02-22T09:35:55.216Z,1417.00
2023-02-22T09:36:55.151Z,1425.00
2023-02-22T09:37:55.098Z,1410.00
2023-02-22T09:38:55.036Z,1417.00
2023-02-22T09:39:55.023Z,1405.00
2023-02-22T09:40:54.918Z,1394.00
2023-02-22T09:41:54.940Z,1403.00
2023-02-22T09:42:54.817Z,1398.00
2023-02-22T09:43:54.764Z,1380.00
2023-02-22T09:44:54.704Z,1387.00
2023-02-22T09:45:54.672Z,1384.00
2023-02-22T09:46:54.602Z,1366.00
2023-02-22T09:47:56.464Z,1377.00
2023-02-22T09:48:54.505Z,1378.00
2023-02-22T09:49:54.437Z,1372.00
2023-02-22T09:50:54.398Z,1358.00
2023-02-22T09:51:54.367Z,1353.00
2023-02-22T09:52:54.339Z,1359.00
2023-02-22T09:53:54.315Z,1364.00
2023-02-22T09:54:54.283Z,1335.00
2023-02-22T09:55:54.247Z,1347.00
2023-02-22T09:56:54.211Z,1341.00
2023-02-22T09:57:54.179Z,1333.00
2023-02-22T09:58:54.151Z,1341.00
2023-02-22T09:59:54.133Z,1329.00
2023-02-22T10:00:54.108Z,1317.00
2023-02-22T10:01:54.069Z,1324.00
2023-02-22T10:02:54.921Z,1316.00
2023-02-22T10:03:54.013Z,1307.00
2023-02-22T10:04:53.975Z,1305.00
2023-02-22T10:05:54.966Z,1310.00
2023-02-22T10:06:53.920Z,1304.00
2023-02-22T10:07:53.880Z,1297.00
2023-02-22T10:08:53.828Z,1292.00
2023-02-22T10:09:54.423Z,1292.00
2023-02-22T10:10:53.759Z,1298.00
2023-02-22T10:11:53.730Z,1295.00
2023-02-22T10:12:53.696Z,1288.00
2023-02-22T10:13:53.659Z,1282.00
2023-02-22T10:14:53.612Z,1287.00
2023-02-22T10:15:53.603Z,1265.00
2023-02-22T10:16:53.600Z,1276.00
2023-02-22T10:17:53.513Z,1277.00
2023-02-22T10:18:53.518Z,1261.00
2023-02-22T10:19:54.832Z,1263.00
2023-02-22T10:20:53.388Z,1262.00
2023-02-22T10:21:53.348Z,1265.00
2023-02-22T10:22:53.314Z,1255.00
2023-02-22T10:23:53.282Z,1261.00
2023-02-22T10:24:53.241Z,1247.00
2023-02-22T10:25:53.191Z,1250.00
2023-02-22T10:26:53.193Z,1246.00
2023-02-22T10:27:53.108Z,1249.00
2023-02-22T10:28:53.075Z,1242.00
2023-02-22T10:29:53.055Z,1253.00
2023-02-22T10:30:53.046Z,1230.00
2023-02-22T10:31:53.138Z,1235.00
2023-02-22T10:32:52.948Z,1238.00
2023-02-22T10:33:52.835Z,1229.00
2023-02-22T10:34:52.811Z,1229.00
2023-02-22T10:35:52.732Z,1224.00
2023-02-22T10:36:52.678Z,1229.00
2023-02-22T10:37:52.731Z,1223.00
2023-02-22T10:38:52.574Z,1214.00
2023-02-22T10:39:52.537Z,1209.00
2023-02-22T10:40:52.470Z,1215.00
2023-02-22T10:41:52.427Z,1214.00
2023-02-22T10:42:52.376Z,1208.00
2023-02-22T10:43:52.332Z,1194.00
2023-02-22T10:44:52.272Z,1201.00
2023-02-22T10:45:52.259Z,1199.00
2023-02-22T10:46:52.182Z,1199.00
2023-02-22T10:47:52.150Z,1199.00
2023-02-22T10:48:52.105Z,1185.00
2023-02-22T10:49:52.132Z,1191.00
2023-02-22T10:50:52.000Z,1187.00
2023-02-22T10:51:51.944Z,1190.00
2023-02-22T10:52:51.938Z,1184.00
2023-02-22T10:53:51.957Z,1174.00
2023-02-22T10:54:51.795Z,1173.00
2023-02-22T10:55:51.768Z,1177.00
2023-02-22T11:24:50.307Z,1111.00
2023-02-22T11:33:49.799Z,1095.00
2023-02-22T11:35:49.678Z,1083.00
2023-02-22T11:46:49.176Z,1078.00
2023-02-22T11:48:49.028Z,1055.00
2023-02-22T11:49:48.973Z,1056.00
2023-02-22T11:50:48.914Z,1060.00
2023-02-22T11:51:48.868Z,1066.00
2023-02-22T11:52:48.790Z,1072.00
2023-02-22T11:53:48.740Z,1057.00
2023-02-22T11:54:48.703Z,1063.00
2023-02-22T11:55:48.627Z,1063.00
2023-02-22T11:56:48.689Z,1060.00
2023-02-22T11:57:48.537Z,1051.00
2023-02-22T11:58:48.569Z,1056.00
2023-02-22T11:59:48.497Z,1048.00
2023-02-22T12:00:48.485Z,1052.00
2023-02-22T12:01:48.492Z,1044.00
2023-02-22T12:02:56.687Z,1053.00
2023-02-22T12:03:49.512Z,1053.00
2023-02-22T12:04:48.489Z,1054.00
2023-02-22T12:05:48.335Z,1049.00
2023-02-22T12:06:48.249Z,1055.00
2023-02-22T12:07:48.214Z,1065.00
2023-02-22T12:08:48.335Z,1058.00
2023-02-22T12:09:48.134Z,1046.00
2023-02-22T12:10:48.034Z,1049.00
2023-02-22T12:11:48.027Z,1054.00
2023-02-22T12:12:47.984Z,1045.00
2023-02-22T12:14:47.994Z,1037.00
2023-02-22T12:15:48.038Z,1045.00
2023-02-22T12:16:47.986Z,1057.00
2023-02-22T12:17:59.376Z,1042.00
2023-02-22T12:18:48.916Z,1043.00
2023-02-22T12:19:47.867Z,1046.00
2023-02-22T12:20:47.797Z,1049.00
2023-02-22T12:21:47.759Z,1050.00
2023-02-22T12:22:47.800Z,1038.00
2023-02-22T12:23:47.707Z,1039.00
2023-02-22T12:24:48.877Z,1047.00
2023-02-22T12:25:47.501Z,1024.00
2023-02-22T12:26:47.488Z,1040.00
2023-02-22T12:27:47.377Z,1038.00
2023-02-22T12:28:47.344Z,1031.00
2023-02-22T12:29:47.491Z,1033.00
2023-02-22T12:30:47.276Z,1017.00
2023-02-22T12:31:47.222Z,1029.00
2023-02-22T12:32:47.907Z,1032.00
2023-02-22T12:33:47.012Z,1041.00
2023-02-22T12:34:47.060Z,1031.00
2023-02-22T12:35:46.866Z,1031.00
2023-02-22T12:36:46.821Z,1031.00
2023-02-22T12:37:46.751Z,1032.00
2023-02-22T12:38:46.706Z,1034.00
2023-02-22T12:39:53.298Z,1026.00
2023-02-22T12:41:46.475Z,1027.00
2023-02-22T12:42:46.408Z,1027.00
2023-02-22T12:43:46.347Z,1024.00
2023-02-22T12:44:46.281Z,1026.00
2023-02-22T12:45:46.219Z,1017.00
2023-02-22T12:46:46.987Z,1021.00
2023-02-22T12:47:46.089Z,1021.00
2023-02-22T12:48:46.027Z,1009.00
2023-02-22T12:49:45.958Z,1021.00
2023-02-22T12:50:45.949Z,1009.00
2023-02-22T12:51:45.832Z,1022.00
2023-02-22T12:52:45.747Z,1019.00
2023-02-22T12:53:45.670Z,1005.00
2023-02-22T12:54:45.617Z,1007.00
2023-02-22T12:55:45.542Z,1015.00
2023-02-22T12:56:45.471Z,1006.00
2023-02-22T12:57:45.989Z,1009.00
2023-02-22T12:58:45.344Z,1014.00
2023-02-22T12:59:45.277Z,1008.00
2023-02-22T13:00:45.197Z,997.00
2023-02-22T13:01:45.317Z,1015.00
2023-02-22T13:02:45.094Z,1002.00
2023-02-22T13:03:45.000Z,999.00
2023-02-22T13:04:44.949Z,1000.00
2023-02-22T13:05:44.898Z,1007.00
2023-02-22T13:06:44.862Z,996.00
2023-02-22T13:07:44.802Z,1000.00
2023-02-22T13:08:44.762Z,1009.00
2023-02-22T13:09:44.703Z,988.00
2023-02-22T13:10:44.675Z,994.00
2023-02-22T13:11:44.622Z,996.00
2023-02-22T13:12:44.574Z,988.00
2023-02-22T13:13:44.531Z,994.00
2023-02-22T13:14:44.996Z,984.00
2023-02-22T13:15:44.487Z,983.00
2023-02-22T13:16:44.405Z,982.00
2023-02-22T13:17:44.411Z,979.00
2023-02-22T13:18:44.314Z,978.00
2023-02-22T13:19:44.260Z,985.00
2023-02-22T13:20:44.916Z,959.00
2023-02-22T13:21:44.150Z,986.00
2023-02-22T13:22:44.082Z,972.00
2023-02-22T13:23:44.034Z,968.00
2023-02-22T13:24:43.959Z,959.00
2023-02-22T13:25:43.890Z,967.00
2023-02-22T13:26:43.859Z,965.00
2023-02-22T13:27:43.765Z,953.00
2023-02-22T13:28:43.684Z,949.00
2023-02-22T13:29:43.614Z,953.00
2023-02-22T13:30:43.558Z,956.00
2023-02-22T13:31:43.624Z,952.00
2023-02-22T13:32:43.539Z,956.00
2023-02-22T13:33:43.517Z,959.00
2023-02-22T13:34:43.582Z,955.00
2023-02-22T13:35:44.002Z,962.00
2023-02-22T13:36:43.476Z,959.00
2023-02-22T13:37:43.458Z,962.00
2023-02-22T13:38:43.444Z,969.00
2023-02-22T13:39:43.419Z,967.00
2023-02-22T13:40:43.380Z,974.00
2023-02-22T13:41:43.345Z,977.00
2023-02-22T13:42:44.101Z,968.00
2023-02-22T13:43:43.252Z,973.00
2023-02-22T13:44:43.180Z,976.00
2023-02-22T13:45:43.140Z,979.00
2023-02-22T13:46:44.072Z,975.00
2023-02-22T13:51:43.509Z,951.00
2023-02-22T17:51:36.617Z,637.00
2023-02-22T18:01:36.480Z,632.00
2023-02-22T18:02:36.454Z,630.00
2023-02-22T18:03:36.420Z,635.00
2023-02-22T18:04:36.403Z,630.00
2023-02-22T18:05:36.438Z,633.00
2023-02-22T18:06:36.386Z,630.00
2023-02-22T18:07:36.355Z,627.00
2023-02-22T18:08:36.338Z,629.00
2023-02-22T18:09:36.442Z,635.00
2023-02-22T18:10:36.332Z,630.00
2023-02-22T18:11:36.321Z,629.00
2023-02-22T18:12:36.289Z,628.00
2023-02-22T18:13:36.284Z,630.00
2023-02-22T18:14:36.266Z,628.00
2023-02-22T18:15:36.266Z,626.00
2023-02-22T18:16:36.243Z,626.00
2023-02-22T18:17:36.237Z,626.00
2023-02-22T18:18:36.235Z,624.00
2023-02-22T18:19:36.203Z,625.00
2023-02-22T18:20:36.185Z,627.00
2023-02-22T18:21:36.248Z,625.00
2023-02-22T18:22:36.172Z,620.00
2023-02-22T18:23:36.172Z,626.00
2023-02-22T18:24:36.168Z,621.00
2023-02-22T18:25:36.148Z,621.00
2023-02-22T18:26:36.144Z,622.00
2023-02-22T18:27:36.129Z,621.00
2023-02-22T18:28:36.107Z,622.00
2023-02-22T18:29:36.162Z,620.00
2023-02-22T18:30:36.147Z,624.00
2023-02-22T18:31:36.154Z,617.00
2023-02-22T18:32:36.611Z,619.00
2023-02-22T18:33:36.069Z,623.00
2023-02-22T18:34:36.051Z,615.00
2023-02-22T18:35:36.045Z,613.00
2023-02-22T18:36:36.046Z,615.00
2023-02-22T18:37:36.015Z,614.00
2023-02-22T18:38:36.023Z,621.00
2023-02-22T18:40:35.984Z,619.00
2023-02-22T18:41:35.988Z,614.00
2023-02-22T18:42:35.969Z,617.00
2023-02-22T18:43:35.970Z,618.00
2023-02-22T18:44:35.947Z,613.00
2023-02-22T18:45:35.955Z,615.00
2023-02-22T18:46:35.991Z,613.00
2023-02-22T18:47:35.933Z,614.00
2023-02-22T18:48:35.919Z,618.00
2023-02-22T18:49:35.991Z,612.00
2023-02-22T18:50:35.889Z,610.00
2023-02-22T18:51:35.904Z,612.00
2023-02-22T18:52:35.879Z,608.00
2023-02-22T18:53:35.889Z,620.00
2023-02-22T18:54:35.878Z,614.00
2023-02-22T18:55:35.874Z,615.00
2023-02-22T18:56:35.873Z,610.00
2023-02-22T18:57:35.863Z,611.00
2023-02-22T18:58:35.909Z,607.00
2023-02-22T18:59:35.867Z,607.00
2023-02-22T19:00:35.855Z,611.00
2023-02-22T19:01:35.966Z,609.00
2023-02-22T19:02:35.883Z,606.00
2023-02-22T19:03:35.836Z,610.00
2023-02-22T19:04:35.881Z,612.00
2023-02-22T23:52:39.216Z,505.00
2023-02-22T23:53:39.197Z,517.00
2023-02-22T23:54:39.174Z,515.00
2023-02-22T23:55:39.262Z,505.00
2023-02-22T23:56:40.375Z,508.00
2023-02-22T23:57:39.065Z,512.00
2023-02-22T23:58:39.037Z,504.00
2023-02-22T23:59:39.020Z,522.00
